Time;durP1;ratioP1;P1;durP2;ratioP2;P2;SDS_P1;SDS_P2;PMS_P1;PMS_P2;Temp;Humidity;BMP_temperature;BMP_pressure;BME280_temperature;BME280_humidity;BME280_pressure;Samples;Min_cycle;Max_cycle;Signal;HPM_P1;HPM_P2
2022/04/04 00:00:08;;;;;;;12.40;4.45;;;;;;;6.65;100.00;101629.72;5112526;28;20051;-26
2022/04/04 00:02:37;;;;;;;11.52;3.75;;;;;;;6.65;100.00;101631.66;5113564;28;20047;-31
2022/04/04 00:05:06;;;;;;;8.82;3.88;;;;;;;6.67;100.00;101621.13;5112590;28;20074;-27
2022/04/04 00:07:34;;;;;;;13.88;4.40;;;;;;;6.66;100.00;101616.69;5113370;28;20097;-26
2022/04/04 00:10:02;;;;;;;11.13;4.32;;;;;;;6.68;100.00;101609.78;5112212;28;20078;-27
2022/04/04 00:12:30;;;;;;;13.35;4.97;;;;;;;6.71;100.00;101608.44;5112562;28;20043;-29
2022/04/04 00:14:58;;;;;;;11.13;4.25;;;;;;;6.74;99.68;101605.16;5112448;28;20423;-27
2022/04/04 00:17:25;;;;;;;11.93;4.43;;;;;;;6.71;98.90;101598.19;5113325;28;20054;-29
2022/04/04 00:19:54;;;;;;;10.65;4.60;;;;;;;6.73;98.50;101595.16;5112889;28;20048;-29
2022/04/04 00:22:22;;;;;;;11.88;4.65;;;;;;;6.74;98.88;101585.75;5111953;28;20051;-25
2022/04/04 00:24:50;;;;;;;12.48;4.82;;;;;;;6.77;99.08;101580.53;5112876;28;20276;-27
2022/04/04 00:27:18;;;;;;;8.70;4.38;;;;;;;6.79;98.36;101574.75;5110365;28;20442;-28
2022/04/04 00:29:47;;;;;;;11.18;5.13;;;;;;;6.77;99.01;101568.59;5111581;28;20105;-27
2022/04/04 00:32:15;;;;;;;14.60;5.25;;;;;;;6.79;99.50;101575.56;5112810;28;20051;-29
2022/04/04 00:34:44;;;;;;;11.98;4.85;;;;;;;6.83;99.89;101554.53;5111947;28;20056;-24
2022/04/04 00:37:13;;;;;;;13.45;5.55;;;;;;;6.86;99.10;101559.56;5112677;27;20071;-28
2022/04/04 00:39:42;;;;;;;11.75;5.90;;;;;;;6.85;99.25;101552.34;5112154;28;20614;-26
2022/04/04 00:42:10;;;;;;;13.60;6.38;;;;;;;6.86;99.18;101544.84;5112116;28;20507;-28
2022/04/04 00:44:38;;;;;;;13.32;5.70;;;;;;;6.86;99.02;101536.53;5112499;27;20051;-29
2022/04/04 00:47:05;;;;;;;13.10;5.97;;;;;;;6.89;98.78;101524.91;5111641;28;20050;-26
2022/04/04 00:49:33;;;;;;;10.88;6.00;;;;;;;6.90;98.47;101523.81;5112385;28;20484;-27
2022/04/04 00:52:01;;;;;;;15.15;6.22;;;;;;;6.87;97.75;101514.09;5101110;28;20075;-26
2022/04/04 00:54:30;;;;;;;13.88;6.22;;;;;;;6.84;97.55;101517.38;5111375;28;20051;-27
2022/04/04 00:56:58;;;;;;;15.50;6.30;;;;;;;6.89;96.71;101509.13;5112281;28;20053;-26
2022/04/04 00:59:26;;;;;;;11.07;5.40;;;;;;;6.91;96.25;101506.94;5112397;28;20056;-27
2022/04/04 01:01:55;;;;;;;12.98;6.03;;;;;;;6.95;96.52;101503.63;5111489;28;20050;-30
2022/04/04 01:04:22;;;;;;;19.35;6.82;;;;;;;6.95;96.79;101490.59;5112336;28;20462;-25
2022/04/04 01:06:50;;;;;;;11.82;5.90;;;;;;;6.95;96.64;101487.81;5111801;28;20044;-27
2022/04/04 01:09:18;;;;;;;15.80;7.10;;;;;;;6.97;96.76;101480.09;5106594;28;20400;-28
2022/04/04 01:12:04;;;;;;;14.80;6.80;;;;;;;7.00;96.22;101479.53;5112104;28;20071;-30
2022/04/04 01:14:31;;;;;;;16.15;6.75;;;;;;;7.01;96.76;101475.66;5111946;28;20049;-27
2022/04/04 01:16:59;;;;;;;12.52;7.63;;;;;;;7.04;97.72;101458.50;5111077;28;20053;-27
2022/04/04 01:19:27;;;;;;;13.77;6.70;;;;;;;7.05;97.47;101457.41;5111709;28;20044;-30
2022/04/04 01:21:55;;;;;;;15.30;6.78;;;;;;;7.07;98.01;101446.88;5111919;28;20054;-30
2022/04/04 01:24:25;;;;;;;15.77;7.78;;;;;;;7.08;97.78;101442.16;5110589;28;20499;-28
2022/04/04 01:26:54;;;;;;;18.35;6.93;;;;;;;7.10;98.47;101432.50;5111557;28;20097;-30
2022/04/04 01:29:23;;;;;;;15.43;7.03;;;;;;;7.08;98.64;101443.00;5110806;28;20055;-29
2022/04/04 01:31:53;;;;;;;16.52;7.55;;;;;;;7.11;98.53;101419.44;5111433;28;20428;-28
2022/04/04 01:34:21;;;;;;;18.27;7.40;;;;;;;7.12;97.51;101419.19;5111550;28;20043;-25
2022/04/04 01:36:50;;;;;;;14.90;6.50;;;;;;;7.13;97.94;101411.69;5110801;28;20055;-28
2022/04/04 01:39:18;;;;;;;15.95;6.60;;;;;;;7.10;98.12;101406.69;5111613;28;20062;-24
2022/04/04 01:41:47;;;;;;;12.90;5.95;;;;;;;7.10;97.63;101396.41;5111471;28;20043;-28
2022/04/04 01:44:15;;;;;;;15.85;6.70;;;;;;;7.12;98.08;101391.44;5110523;28;20047;-28
2022/04/04 01:46:43;;;;;;;17.35;6.97;;;;;;;7.13;97.79;101386.72;5111475;28;20054;-27
2022/04/04 01:49:11;;;;;;;14.43;6.90;;;;;;;7.13;97.50;101376.47;5111375;28;20135;-29
2022/04/04 01:51:40;;;;;;;15.00;6.32;;;;;;;7.13;97.87;101375.63;5110507;28;20051;-26
2022/04/04 01:54:09;;;;;;;15.95;5.63;;;;;;;7.17;97.10;101365.69;5111191;28;20485;-32
2022/04/04 01:56:36;;;;;;;16.58;5.82;;;;;;;7.17;96.23;101357.34;5111033;28;20147;-26
2022/04/04 01:59:05;;;;;;;15.05;5.25;;;;;;;7.20;96.75;101360.41;5110176;27;20040;-26
2022/04/04 02:01:34;;;;;;;14.00;5.18;;;;;;;7.19;95.33;101347.63;5111207;28;20067;-26
2022/04/04 02:04:03;;;;;;;13.25;4.75;;;;;;;7.20;95.16;101335.44;5111291;28;20138;-28
2022/04/04 02:06:31;;;;;;;13.43;4.70;;;;;;;7.21;93.32;101339.88;5110441;28;20476;-31
2022/04/04 02:08:58;;;;;;;11.55;4.68;;;;;;;7.22;92.89;101340.72;5110934;28;20044;-30
2022/04/04 02:11:26;;;;;;;14.35;4.75;;;;;;;7.23;91.63;101315.47;5110365;28;20051;-28
2022/04/04 02:13:54;;;;;;;17.00;4.90;;;;;;;7.26;93.38;101325.22;5110893;27;20047;-27
2022/04/04 02:16:24;;;;;;;13.20;3.97;;;;;;;7.28;93.64;101324.94;5109882;28;20048;-27
2022/04/04 02:18:52;;;;;;;16.00;4.30;;;;;;;7.32;92.71;101326.09;5110147;28;20054;-30
2022/04/04 02:21:20;;;;;;;19.48;4.38;;;;;;;7.30;91.06;101308.88;5109711;28;20047;-25
2022/04/04 02:23:48;;;;;;;12.73;3.92;;;;;;;7.32;92.26;101329.72;5110905;28;20047;-28
2022/04/04 02:26:16;;;;;;;16.05;4.78;;;;;;;7.34;92.07;101312.78;5110043;28;20051;-29
2022/04/04 02:28:43;;;;;;;14.18;4.55;;;;;;;7.34;92.45;101298.91;5110776;28;20509;-28
2022/04/04 02:31:11;;;;;;;13.25;4.88;;;;;;;7.36;92.67;101292.00;5110902;28;20058;-27
2022/04/04 02:33:40;;;;;;;17.38;4.72;;;;;;;7.34;93.79;101291.41;5109885;28;20075;-25
2022/04/04 02:36:08;;;;;;;16.13;4.93;;;;;;;7.34;91.97;101285.03;5110830;28;20044;-31
2022/04/04 02:38:36;;;;;;;13.55;4.47;;;;;;;7.32;91.58;101292.78;5112614;28;20400;-29
2022/04/04 02:41:04;;;;;;;13.13;4.40;;;;;;;7.28;91.90;101291.63;5114519;28;20097;-26
2022/04/04 02:43:33;;;;;;;16.38;5.47;;;;;;;7.25;91.85;101274.41;5114620;28;20040;-28
2022/04/04 02:46:01;;;;;;;14.85;4.47;;;;;;;7.25;93.18;101265.25;5114931;28;20046;-29
2022/04/04 02:48:29;;;;;;;18.77;5.28;;;;;;;7.17;91.74;101263.00;5114045;28;20044;-26
2022/04/04 02:50:58;;;;;;;18.33;5.45;;;;;;;7.11;93.06;101252.94;5114393;28;20054;-27
2022/04/04 02:53:25;;;;;;;15.13;5.25;;;;;;;7.13;94.77;101236.88;5114998;28;20039;-25
2022/04/04 02:58:38;;;;;;;15.07;5.78;;;;;;;7.13;98.49;101232.16;5105955;28;20036;-31
2022/04/04 03:01:07;;;;;;;15.10;5.50;;;;;;;7.10;98.06;101238.25;5113473;28;20400;-25
2022/04/04 03:03:35;;;;;;;12.30;5.57;;;;;;;7.03;99.06;101234.00;5114356;28;20333;-27
2022/04/04 03:06:04;;;;;;;18.10;6.13;;;;;;;6.93;99.62;101233.94;5111104;28;20403;-29
2022/04/04 03:08:32;;;;;;;16.90;6.57;;;;;;;6.80;100.00;101241.59;5113970;28;20086;-26
2022/04/04 03:10:59;;;;;;;15.77;5.55;;;;;;;6.81;100.00;101209.16;5113919;28;20035;-25
2022/04/04 03:13:27;;;;;;;17.02;5.93;;;;;;;6.79;100.00;101215.00;5114333;28;20349;-31
2022/04/04 03:15:55;;;;;;;16.77;6.15;;;;;;;6.72;100.00;101213.53;5113256;28;20096;-25
2022/04/04 03:18:23;;;;;;;16.25;6.53;;;;;;;6.64;100.00;101200.16;5114541;28;20066;-32
2022/04/04 03:20:51;;;;;;;16.27;5.78;;;;;;;6.57;100.00;101190.13;5114200;28;20548;-26
2022/04/04 03:23:20;;;;;;;13.38;5.90;;;;;;;6.51;100.00;101191.19;5113403;28;20412;-28
2022/04/04 03:25:49;;;;;;;13.02;5.82;;;;;;;6.43;100.00;101175.03;5114165;28;20059;-25
2022/04/04 03:28:17;;;;;;;10.45;5.72;;;;;;;6.36;100.00;101174.44;5113985;27;20058;-26
2022/04/04 03:30:45;;;;;;;16.45;6.03;;;;;;;6.34;100.00;101168.31;5105181;28;20527;-27
2022/04/04 03:33:12;;;;;;;13.48;5.57;;;;;;;6.27;100.00;101170.44;5113320;28;20060;-30
2022/04/04 03:35:40;;;;;;;16.30;6.15;;;;;;;6.19;100.00;101157.91;5112676;28;20051;-30
2022/04/04 03:38:10;;;;;;;24.48;7.25;;;;;;;6.14;100.00;101162.56;5112549;28;20081;-28
2022/04/04 03:40:40;;;;;;;13.85;6.20;;;;;;;6.12;100.00;101150.91;5113607;28;20142;-26
2022/04/04 03:43:08;;;;;;;15.57;6.13;;;;;;;6.10;100.00;101139.25;5112792;28;20510;-27
2022/04/04 03:45:37;;;;;;;19.80;6.85;;;;;;;6.07;100.00;101148.09;5113559;28;20046;-31
2022/04/04 03:48:06;;;;;;;18.38;6.43;;;;;;;6.04;100.00;101126.44;5113432;28;20043;-26
2022/04/04 03:50:35;;;;;;;12.52;5.22;;;;;;;5.99;100.00;101124.50;5112562;28;20397;-27
2022/04/04 03:53:03;;;;;;;14.73;5.78;;;;;;;5.95;100.00;101117.81;5102263;28;20584;-28
2022/04/04 03:55:33;;;;;;;14.35;4.47;;;;;;;5.90;100.00;101105.81;5113254;28;20089;-29
2022/04/04 03:58:03;;;;;;;10.57;3.47;;;;;;;5.87;100.00;101101.63;5112421;28;20492;-30
2022/04/04 04:00:31;;;;;;;9.52;2.90;;;;;;;5.81;100.00;101097.13;5113486;28;20040;-27
2022/04/04 04:02:59;;;;;;;7.93;2.35;;;;;;;5.74;100.00;101090.97;5113360;28;20036;-25
2022/04/04 04:05:27;;;;;;;8.32;2.33;;;;;;;5.69;100.00;101079.84;5112791;28;20047;-26
2022/04/04 04:07:55;;;;;;;9.65;2.65;;;;;;;5.62;100.00;101081.97;5113360;28;20384;-27
2022/04/04 04:10:23;;;;;;;10.15;2.65;;;;;;;5.56;100.00;101064.50;5113720;28;20043;-24
2022/04/04 04:12:51;;;;;;;7.90;2.35;;;;;;;5.52;100.00;101074.41;5112363;28;20043;-25
2022/04/04 04:15:25;;;;;;;10.50;2.55;;;;;;;5.47;100.00;101061.34;5112012;28;20063;-26
2022/04/04 04:17:53;;;;;;;7.63;2.15;;;;;;;5.40;100.00;101033.03;5113097;27;20051;-29
2022/04/04 04:20:23;;;;;;;12.98;3.25;;;;;;;5.44;100.00;101033.34;5112973;27;20047;-30
2022/04/04 04:22:54;;;;;;;9.52;2.40;;;;;;;5.47;100.00;101027.28;5112764;28;20134;-25
2022/04/04 04:25:23;;;;;;;10.57;2.05;;;;;;;5.38;100.00;101043.56;5112245;28;20432;-29
2022/04/04 04:27:52;;;;;;;7.30;1.63;;;;;;;5.34;100.00;101036.03;5113086;28;20076;-29
2022/04/04 04:30:21;;;;;;;9.10;1.50;;;;;;;5.23;100.00;101025.94;5112797;28;20040;-25
2022/04/04 04:32:52;;;;;;;9.68;1.55;;;;;;;5.14;100.00;101018.09;5104113;28;20059;-31
2022/04/04 04:35:21;;;;;;;10.20;1.63;;;;;;;5.02;100.00;101016.56;5112678;28;20040;-28
2022/04/04 04:37:51;;;;;;;8.80;2.00;;;;;;;4.97;100.00;101000.75;5112727;28;20039;-31
2022/04/04 04:40:19;;;;;;;10.13;2.13;;;;;;;5.02;100.00;100991.66;5110385;28;20556;-29
2022/04/04 04:42:49;;;;;;;10.00;1.83;;;;;;;5.02;100.00;100973.16;5112621;28;20044;-29
2022/04/04 04:45:17;;;;;;;7.43;2.05;;;;;;;5.05;100.00;100978.16;5112576;28;20127;-24
2022/04/04 04:47:47;;;;;;;16.40;2.53;;;;;;;5.11;100.00;100965.22;5110164;28;20500;-28
2022/04/04 04:50:16;;;;;;;13.60;2.38;;;;;;;5.14;100.00;100964.72;5112384;28;20377;-26
2022/04/04 04:52:46;;;;;;;8.35;2.05;;;;;;;5.27;100.00;100933.03;5112535;28;20059;-27
2022/04/04 04:55:15;;;;;;;12.60;2.50;;;;;;;5.36;100.00;100925.91;5110116;28;20112;-26
2022/04/04 04:57:43;;;;;;;15.27;2.85;;;;;;;5.49;100.00;100925.47;5112369;28;20051;-31
2022/04/04 05:00:14;;;;;;;15.52;3.72;;;;;;;5.60;100.00;100909.78;5110748;28;20040;-28
2022/04/04 05:02:41;;;;;;;12.23;4.32;;;;;;;5.65;100.00;100896.81;5112305;28;20054;-35
2022/04/04 05:05:11;;;;;;;15.05;4.40;;;;;;;5.72;100.00;100914.03;5112153;28;20046;-25
2022/04/04 05:07:39;;;;;;;15.45;4.75;;;;;;;5.79;100.00;100891.66;5111414;28;20232;-26
2022/04/04 05:10:07;;;;;;;17.50;5.28;;;;;;;5.81;100.00;100889.44;5111708;28;20130;-22
2022/04/04 05:12:35;;;;;;;12.35;4.75;;;;;;;5.74;100.00;100889.69;5111527;28;20043;-24
2022/04/04 05:15:03;;;;;;;17.00;5.38;;;;;;;5.74;100.00;100878.63;5110696;28;20055;-28
2022/04/04 05:17:31;;;;;;;18.20;4.97;;;;;;;5.78;100.00;100890.00;5111663;28;20047;-28
2022/04/04 05:19:59;;;;;;;16.42;5.53;;;;;;;5.76;100.00;100872.81;5111511;28;20054;-32
2022/04/04 05:22:28;;;;;;;16.90;5.80;;;;;;;5.78;100.00;100874.22;5110509;28;20417;-31
2022/04/04 05:24:56;;;;;;;16.52;5.57;;;;;;;5.77;100.00;100869.78;5109639;28;20091;-29
2022/04/04 05:27:24;;;;;;;16.85;5.90;;;;;;;5.74;100.00;100861.16;5110194;28;20130;-28
2022/04/04 05:29:51;;;;;;;15.48;6.35;;;;;;;5.78;100.00;100854.84;5110653;28;20043;-25
2022/04/04 05:32:20;;;;;;;16.73;6.53;;;;;;;5.82;100.00;100861.47;5111500;28;20047;-27
2022/04/04 05:34:47;;;;;;;19.20;6.45;;;;;;;5.84;100.00;100839.06;5111578;28;20043;-28
2022/04/04 05:37:15;;;;;;;17.48;6.05;;;;;;;5.83;100.00;100843.75;5110862;28;20132;-29
2022/04/04 05:39:44;;;;;;;17.25;5.90;;;;;;;5.88;100.00;100830.00;5110739;28;20082;-26
2022/04/04 05:42:12;;;;;;;20.75;6.45;;;;;;;5.89;100.00;100836.38;5109635;28;20039;-25
2022/04/04 05:44:40;;;;;;;23.52;6.68;;;;;;;5.90;100.00;100828.88;5110521;28;20407;-26
2022/04/04 05:47:09;;;;;;;20.95;6.60;;;;;;;5.93;100.00;100808.97;5111332;28;20046;-26
2022/04/04 05:49:37;;;;;;;18.58;6.00;;;;;;;5.94;100.00;100819.78;5110699;28;20047;-29
2022/04/04 05:52:05;;;;;;;21.58;6.20;;;;;;;5.97;100.00;100810.09;5109654;28;20126;-28
2022/04/04 05:54:33;;;;;;;15.73;5.57;;;;;;;5.99;100.00;100796.81;5111456;27;20051;-32
2022/04/04 05:57:03;;;;;;;16.55;6.10;;;;;;;5.96;100.00;100803.72;5109279;28;20567;-26
2022/04/04 05:59:32;;;;;;;18.42;6.47;;;;;;;5.99;100.00;100792.13;5110896;28;20467;-31
2022/04/04 06:02:00;;;;;;;19.75;6.68;;;;;;;5.98;100.00;100798.75;5110766;28;20135;-28
2022/04/04 06:04:28;;;;;;;15.13;5.95;;;;;;;5.98;100.00;100784.06;5110493;28;20055;-26
2022/04/04 06:06:56;;;;;;;23.35;7.18;;;;;;;5.99;100.00;100792.13;5110798;28;20381;-28
2022/04/04 06:09:24;;;;;;;20.60;7.20;;;;;;;6.04;100.00;100778.25;5110259;28;20408;-28
2022/04/04 06:11:52;;;;;;;15.52;6.20;;;;;;;6.02;100.00;100783.22;5109818;28;20044;-31
2022/04/04 06:14:21;;;;;;;26.60;7.40;;;;;;;6.00;100.00;100774.38;5110854;28;20043;-25
2022/04/04 06:16:48;;;;;;;19.23;6.45;;;;;;;6.05;100.00;100770.78;5110636;28;20059;-29
2022/04/04 06:19:16;;;;;;;21.88;6.95;;;;;;;5.99;100.00;100758.88;5110717;28;20048;-25
2022/04/04 06:21:45;;;;;;;23.38;6.95;;;;;;;6.00;100.00;100743.06;5111350;28;20047;-25
2022/04/04 06:24:12;;;;;;;23.35;7.07;;;;;;;5.96;100.00;100753.88;5110870;28;20429;-29
2022/04/04 06:26:41;;;;;;;20.83;6.90;;;;;;;6.00;100.00;100757.75;5109721;28;20043;-25
2022/04/04 06:29:10;;;;;;;24.20;6.75;;;;;;;5.94;100.00;100730.31;5109649;28;20047;-27
2022/04/04 06:31:40;;;;;;;19.92;6.72;;;;;;;5.95;100.00;100729.22;5108788;28;20081;-25
2022/04/04 06:34:08;;;;;;;21.63;6.75;;;;;;;5.94;100.00;100736.69;5109816;28;20116;-26
2022/04/04 06:36:38;;;;;;;22.35;7.28;;;;;;;5.89;100.00;100733.91;5109986;28;20048;-37
2022/04/04 06:39:06;;;;;;;21.20;7.10;;;;;;;5.85;100.00;100736.34;5109053;28;20056;-29
2022/04/04 06:41:36;;;;;;;34.75;7.47;;;;;;;5.82;100.00;100733.28;5109480;28;20065;-30
2022/04/04 06:44:04;;;;;;;18.23;6.38;;;;;;;5.86;100.00;100732.47;5109870;28;20075;-25
2022/04/04 06:46:35;;;;;;;20.88;7.35;;;;;;;5.88;100.00;100746.03;5106662;28;20048;-28
2022/04/04 06:49:05;;;;;;;26.03;7.83;;;;;;;5.87;100.00;100725.84;5109704;28;20499;-25
2022/04/04 06:51:34;;;;;;;19.48;6.95;;;;;;;5.89;100.00;100720.06;5109809;28;20048;-30
2022/04/04 06:54:03;;;;;;;20.35;6.53;;;;;;;5.91;100.00;100719.78;5109018;28;20055;-25
2022/04/04 06:56:31;;;;;;;30.35;7.53;;;;;;;5.91;100.00;100711.47;5108818;28;20355;-25
2022/04/04 06:58:59;;;;;;;28.55;7.45;;;;;;;5.88;100.00;100708.16;5109332;28;20051;-26
2022/04/04 07:01:27;;;;;;;26.25;7.07;;;;;;;5.86;100.00;100709.47;5108865;28;20400;-27
2022/04/04 07:03:57;;;;;;;18.17;6.75;;;;;;;5.87;100.00;100706.44;5109412;28;20108;-32
2022/04/04 07:06:28;;;;;;;22.35;7.10;;;;;;;5.91;100.00;100711.47;5109600;28;20043;-25
2022/04/04 07:08:55;;;;;;;24.40;6.93;;;;;;;5.95;100.00;100705.13;5109156;28;20405;-26
2022/04/04 07:11:23;;;;;;;24.35;7.85;;;;;;;5.96;100.00;100700.41;5109694;28;20421;-31
2022/04/04 07:13:52;;;;;;;23.33;6.93;;;;;;;5.97;100.00;100705.69;5108617;28;20070;-26
2022/04/04 07:16:20;;;;;;;19.73;6.32;;;;;;;6.00;100.00;100695.97;5109363;28;20134;-32
2022/04/04 07:18:48;;;;;;;22.75;7.20;;;;;;;6.03;100.00;100693.50;5108741;28;20064;-27
2022/04/04 07:21:16;;;;;;;20.90;6.38;;;;;;;6.06;100.00;100676.34;5108743;28;20048;-28
2022/04/04 07:23:45;;;;;;;20.98;7.28;;;;;;;6.08;100.00;100673.28;5110446;28;20161;-25
2022/04/04 07:26:14;;;;;;;26.77;7.68;;;;;;;6.08;100.00;100687.16;5113335;28;20036;-28
2022/04/04 07:28:43;;;;;;;19.70;6.22;;;;;;;6.07;100.00;100677.16;5112283;28;20047;-28
2022/04/04 07:31:11;;;;;;;19.15;5.85;;;;;;;6.08;100.00;100695.47;5113064;28;20043;-29
2022/04/04 07:33:39;;;;;;;23.02;6.38;;;;;;;6.09;100.00;100688.81;5113026;28;20400;-32
2022/04/04 07:36:07;;;;;;;24.30;6.18;;;;;;;6.10;100.00;100660.84;5112291;27;20048;-31
2022/04/04 07:38:35;;;;;;;22.15;5.70;;;;;;;6.12;100.00;100655.03;5112491;28;20373;-29
2022/04/04 07:41:04;;;;;;;21.73;5.43;;;;;;;6.10;100.00;100657.25;5112745;28;20234;-31
2022/04/04 07:43:32;;;;;;;17.08;5.05;;;;;;;6.08;100.00;100657.50;5111772;28;20057;-26
2022/04/04 07:46:00;;;;;;;22.25;5.13;;;;;;;6.08;100.00;100676.91;5110935;28;20055;-28
2022/04/04 07:48:28;;;;;;;20.60;4.43;;;;;;;6.09;100.00;100650.03;5112738;28;20039;-26
2022/04/04 07:50:56;;;;;;;26.33;5.10;;;;;;;6.12;100.00;100636.47;5111957;28;20044;-31
2022/04/04 07:53:24;;;;;;;25.80;4.90;;;;;;;6.15;100.00;100649.78;5111887;28;20051;-26
2022/04/04 07:55:52;;;;;;;23.20;5.15;;;;;;;6.15;100.00;100641.47;5112649;28;20048;-31
2022/04/04 07:58:22;;;;;;;28.17;5.43;;;;;;;6.22;100.00;100635.63;5111759;28;20381;-24
2022/04/04 08:00:52;;;;;;;26.52;5.55;;;;;;;6.26;100.00;100622.06;5112374;28;20075;-26
2022/04/04 08:03:21;;;;;;;21.70;4.70;;;;;;;6.28;100.00;100633.69;5111806;28;20173;-27
2022/04/04 08:05:50;;;;;;;25.90;5.10;;;;;;;6.32;100.00;100623.72;5112211;28;20086;-27
2022/04/04 08:08:18;;;;;;;25.73;5.07;;;;;;;6.36;100.00;100613.75;5112469;28;20504;-26
2022/04/04 08:10:45;;;;;;;23.60;4.53;;;;;;;6.37;100.00;100616.25;5111818;28;20062;-30
2022/04/04 08:13:13;;;;;;;26.80;5.05;;;;;;;6.39;100.00;100616.81;5112265;28;20039;-33
2022/04/04 08:15:42;;;;;;;22.95;4.47;;;;;;;6.41;100.00;100616.50;5112350;28;20077;-25
2022/04/04 08:18:11;;;;;;;24.73;4.63;;;;;;;6.41;100.00;100611.81;5111164;28;20459;-29
2022/04/04 08:20:39;;;;;;;21.15;4.20;;;;;;;6.40;100.00;100584.38;5112372;28;20050;-29
2022/04/04 08:23:08;;;;;;;20.00;4.32;;;;;;;6.40;100.00;100593.50;5112051;28;20134;-28
2022/04/04 08:25:36;;;;;;;24.10;4.80;;;;;;;6.43;100.00;100604.03;5111054;28;20058;-30
2022/04/04 08:28:04;;;;;;;27.60;4.68;;;;;;;6.47;100.00;100585.75;5112049;28;20316;-25
2022/04/04 08:30:32;;;;;;;19.05;3.72;;;;;;;6.49;100.00;100594.63;5111587;28;20054;-26
2022/04/04 08:33:02;;;;;;;19.95;4.30;;;;;;;6.49;100.00;100602.94;5111362;28;20134;-26
2022/04/04 08:35:30;;;;;;;16.90;4.03;;;;;;;6.55;100.00;100596.28;5110715;28;20044;-25
2022/04/04 08:37:57;;;;;;;23.75;3.83;;;;;;;6.57;100.00;100571.06;5111495;28;20047;-25
2022/04/04 08:40:25;;;;;;;26.27;4.50;;;;;;;6.56;100.00;100567.47;5110439;28;20055;-31
2022/04/04 08:42:54;;;;;;;26.88;4.35;;;;;;;6.62;100.00;100586.84;5111777;28;20131;-30
2022/04/04 08:45:22;;;;;;;24.73;4.00;;;;;;;6.63;100.00;100569.91;5108889;28;20439;-28
2022/04/04 08:47:50;;;;;;;22.60;3.53;;;;;;;6.60;100.00;100572.41;5110355;28;20081;-30
2022/04/04 08:50:19;;;;;;;23.42;3.95;;;;;;;6.61;100.00;100579.63;5111571;27;20079;-31
2022/04/04 08:52:48;;;;;;;24.00;3.85;;;;;;;6.63;100.00;100578.25;5110324;28;20059;-25
2022/04/04 08:55:16;;;;;;;17.83;3.33;;;;;;;6.63;100.00;100569.91;5111549;28;20075;-28
2022/04/04 08:57:44;;;;;;;32.58;3.97;;;;;;;6.64;100.00;100559.66;5111173;28;20449;-33
2022/04/04 09:00:13;;;;;;;27.85;4.30;;;;;;;6.70;100.00;100562.16;5110779;28;20059;-31
2022/04/04 09:02:57;;;;;;;26.20;4.03;;;;;;;6.72;100.00;100550.78;5111629;28;20078;-26
2022/04/04 09:05:29;;;;;;;24.95;4.03;;;;;;;6.72;100.00;100548.00;5111125;28;20130;-32
2022/04/04 09:08:05;;;;;;;23.13;3.72;;;;;;;6.73;100.00;100528.31;5110332;28;20058;-28
2022/04/04 09:10:35;;;;;;;18.33;3.50;;;;;;;6.72;100.00;100539.69;5110990;28;20079;-26
2022/04/04 09:13:12;;;;;;;27.67;3.85;;;;;;;6.75;100.00;100541.91;5111165;28;20040;-26
2022/04/04 09:15:49;;;;;;;21.13;3.30;;;;;;;6.77;100.00;100536.91;5110482;28;20138;-30
2022/04/04 09:18:18;;;;;;;22.63;3.38;;;;;;;6.77;100.00;100532.19;5110819;28;20050;-29
2022/04/04 09:20:52;;;;;;;14.77;3.05;;;;;;;6.79;100.00;100543.84;5109794;28;20055;-28
2022/04/04 09:23:20;;;;;;;23.17;3.65;;;;;;;6.82;100.00;100528.56;5110951;28;20055;-28
2022/04/04 09:25:48;;;;;;;19.13;3.38;;;;;;;6.82;100.00;100521.06;5110954;28;20044;-29
2022/04/04 09:28:18;;;;;;;22.92;3.90;;;;;;;6.83;100.00;100517.19;5110051;28;20381;-25
2022/04/04 09:31:07;;;;;;;21.23;3.30;;;;;;;6.85;100.00;100525.22;5110636;28;20085;-29
2022/04/04 09:33:35;;;;;;;16.40;3.25;;;;;;;6.86;100.00;100516.63;5111055;28;20054;-29
2022/04/04 09:36:05;;;;;;;23.65;3.38;;;;;;;6.89;100.00;100507.75;5110156;28;20043;-27
2022/04/04 09:38:34;;;;;;;19.58;3.00;;;;;;;6.93;100.00;100526.59;5110159;28;20052;-29
2022/04/04 09:41:06;;;;;;;19.63;4.15;;;;;;;6.97;100.00;100514.66;5111259;28;20075;-27
2022/04/04 09:43:52;;;;;;;17.27;3.08;;;;;;;7.01;100.00;100510.19;5111471;28;20051;-28
2022/04/04 09:46:20;;;;;;;22.05;3.40;;;;;;;6.98;100.00;100508.00;5111434;28;20047;-25
2022/04/04 09:49:06;;;;;;;18.00;3.10;;;;;;;7.05;100.00;100508.50;5110747;28;20048;-28
2022/04/04 09:51:37;;;;;;;13.75;2.90;;;;;;;7.05;100.00;100500.16;5111485;28;20039;-28
2022/04/04 09:54:06;;;;;;;16.80;3.40;;;;;;;7.10;100.00;100499.31;5111447;28;20500;-28
2022/04/04 09:56:34;;;;;;;21.90;3.35;;;;;;;7.12;100.00;100495.16;5110815;28;20100;-28
2022/04/04 09:59:03;;;;;;;21.42;3.38;;;;;;;7.12;100.00;100489.59;5110263;28;20043;-29
2022/04/04 10:01:33;;;;;;;19.00;3.20;;;;;;;7.17;100.00;100488.75;5111054;28;20242;-34
2022/04/04 10:04:02;;;;;;;15.60;3.17;;;;;;;7.21;100.00;100478.72;5110380;28;20043;-28
2022/04/04 10:06:31;;;;;;;15.35;3.20;;;;;;;7.20;100.00;100485.38;5109593;28;20059;-25
2022/04/04 10:09:01;;;;;;;19.92;3.78;;;;;;;7.22;100.00;100483.16;5111073;28;20047;-29
2022/04/04 10:11:31;;;;;;;21.25;4.40;;;;;;;7.24;100.00;100487.31;5110511;28;20039;-28
2022/04/04 10:14:00;;;;;;;18.40;3.85;;;;;;;7.27;100.00;100480.34;5110933;28;20032;-30
2022/04/04 10:16:28;;;;;;;14.50;3.50;;;;;;;7.29;100.00;100480.06;5111012;28;20126;-28
2022/04/04 10:18:57;;;;;;;25.95;4.30;;;;;;;7.28;100.00;100470.91;5109831;28;20051;-26
2022/04/04 10:21:26;;;;;;;17.10;3.28;;;;;;;7.31;100.00;100461.19;5110966;28;20043;-26
2022/04/04 10:23:56;;;;;;;19.13;4.30;;;;;;;7.30;100.00;100474.25;5110211;28;20134;-26
2022/04/04 10:26:29;;;;;;;19.15;4.38;;;;;;;7.32;100.00;100460.06;5110888;28;20437;-26
2022/04/04 10:29:12;;;;;;;17.00;3.92;;;;;;;7.36;100.00;100458.41;5110758;28;20049;-27
2022/04/04 10:31:48;;;;;;;17.20;4.18;;;;;;;7.34;100.00;100453.13;5110081;28;20051;-29
2022/04/04 10:34:18;;;;;;;21.05;5.20;;;;;;;7.39;100.00;100452.28;5110599;28;20051;-26
2022/04/04 10:36:57;;;;;;;20.08;5.13;;;;;;;7.40;100.00;100440.84;5110100;28;20567;-28
2022/04/04 10:39:44;;;;;;;22.52;4.95;;;;;;;7.45;100.00;100454.69;5109544;28;20496;-24
2022/04/04 10:42:28;;;;;;;18.55;5.20;;;;;;;7.50;100.00;100462.16;5110492;28;20039;-27
2022/04/04 10:45:06;;;;;;;19.17;4.35;;;;;;;7.53;100.00;100447.72;5109739;28;20058;-29
2022/04/04 10:47:35;;;;;;;22.38;4.90;;;;;;;7.52;100.00;100449.66;5108572;28;20070;-25
2022/04/04 10:50:22;;;;;;;20.85;4.88;;;;;;;7.56;100.00;100438.81;5108789;28;20032;-30
2022/04/04 10:52:51;;;;;;;25.90;5.15;;;;;;;7.57;100.00;100440.47;5108679;28;20159;-26
2022/04/04 10:55:29;;;;;;;26.55;4.82;;;;;;;7.60;100.00;100443.47;5110438;28;20059;-26
2022/04/04 10:58:00;;;;;;;22.75;4.97;;;;;;;7.63;100.00;100433.75;5110523;28;20047;-28
2022/04/04 11:00:35;;;;;;;22.88;4.80;;;;;;;7.67;100.00;100434.81;5113270;28;20047;-29
2022/04/04 11:03:03;;;;;;;19.08;4.78;;;;;;;7.73;100.00;100439.22;5114594;28;20139;-27
2022/04/04 11:09:11;;;;;;;24.27;5.03;;;;;;;7.85;100.00;100425.78;5114314;28;20460;-29
2022/04/04 11:11:54;;;;;;;22.00;4.63;;;;;;;7.87;100.00;100422.72;5113512;28;20058;-27
2022/04/04 11:14:43;;;;;;;23.08;5.50;;;;;;;7.93;100.00;100413.22;5113540;28;20560;-27
2022/04/04 11:20:10;;;;;;;26.52;5.45;;;;;;;7.99;100.00;100414.00;5078843;28;20402;-28
2022/04/04 11:22:42;;;;;;;23.20;5.10;;;;;;;8.01;100.00;100412.56;5111293;28;20085;-26
2022/04/04 11:28:20;;;;;;;15.80;4.40;;;;;;;8.02;100.00;100413.38;5111407;28;20380;-30
2022/04/04 11:33:54;;;;;;;20.40;4.80;;;;;;;8.09;100.00;100417.50;5090382;28;20100;-25
2022/04/04 11:39:10;;;;;;;18.30;4.57;;;;;;;8.15;100.00;100396.03;5107559;28;20361;-31
2022/04/04 11:41:59;;;;;;;29.90;5.78;;;;;;;8.20;100.00;100402.34;5112677;28;20038;-30
2022/04/04 11:47:10;;;;;;;22.05;4.63;;;;;;;8.22;100.00;100396.50;5112162;28;20138;-31
2022/04/04 11:49:43;;;;;;;26.77;5.18;;;;;;;8.24;100.00;100397.03;5112777;28;20046;-31